Pagrindinis puslapis
METAR-TAF:

METAR-TAF

Oro uostai :

San Chosė, Kosta Rika

platuma: 09-57N, ilguma: 084-09W, Aukštis: 994 m

Dabartinis oras

Ataskaita buvo paskelbta 36 minutes, ne 13:00 UTC
Vėjas 17 kt iš Rytų su gūsio iki 29 kt
Temperatūra 20°C
Drėgmė 73%
Slėgis 1019 hPa
Matomumas 10 km arba daugiau
Mažai debesys ne aukštis 3500 ft

METAR: MRPV 281300Z 10017G29KT 9999 FEW035 20/15 A3010 NOSIG

Laikas: 07:36 (13:36 UTC)

Prognozė

Ataskaita buvo paskelbta 2 valandos ir 36 minutes, ne 11:00 UTC
Prognozė galioja nuo 28 metu 12 UTC su 29 metu 12 UTC
Vėjas 15 kt iš Rytų
Matomumas 10 km arba daugiau
Mažai debesys ne aukštis 4000 ft
Laikinai
nuo 28 metu 12 UTC su 29 metu 12 UTC
Vėjas 18 kt iš Rytų su gūsio iki 28 kt

TAF: MRPV 281100Z 2812/2912 08015KT 9999 FEW040 TX28/2818Z TN19/2911Z TEMPO 2812/2912 09018G28KT

Orai ataskaitas ir orų prognozės (METAR, TAF).

turimą stotys yra geltonos ir raudonos taškus žemėlapyje.

Perkelti pele per norėdami pamatyti stoties vardą.

Tada spustelėkite, norėdami matyti oro stebėjimo ir prognozės.

Norėdami pakeisti žemėlapį: spustelėkite ant žalios mygtukų su juodo kryžiaus žemyn,; žalią mygtuką su brūkšneliu, jei norite nutolinti; arba žalių rodyklių gretimoms žemėlapius.


METAR-TAF: